createdAt,value
2018-05-17T00:02:06.444Z,75.26
2018-05-17T00:04:34.049Z,74.68
2018-05-17T00:07:01.713Z,74.75
2018-05-17T00:09:29.317Z,73.97
2018-05-17T00:11:56.947Z,73.75
2018-05-17T00:14:24.569Z,74.49
2018-05-17T00:16:52.233Z,74.00
2018-05-17T00:19:19.865Z,73.09
2018-05-17T00:21:47.495Z,73.20
2018-05-17T00:24:15.123Z,73.46
2018-05-17T00:26:42.714Z,73.79
2018-05-17T00:29:10.364Z,73.43
2018-05-17T00:31:37.959Z,73.14
2018-05-17T00:34:05.590Z,73.37
2018-05-17T00:36:33.198Z,74.01
2018-05-17T00:39:00.833Z,73.58
2018-05-17T00:41:28.441Z,73.88
2018-05-17T00:43:56.069Z,73.95
2018-05-17T00:46:23.758Z,73.05
2018-05-17T00:48:51.406Z,73.97
2018-05-17T00:51:19.010Z,74.07
2018-05-17T00:53:46.640Z,73.48
2018-05-17T00:56:14.240Z,74.08
2018-05-17T00:58:41.987Z,73.94
2018-05-17T01:01:09.585Z,74.15
2018-05-17T01:03:37.222Z,73.93
2018-05-17T01:06:04.859Z,73.20
2018-05-17T01:08:32.449Z,71.49
2018-05-17T01:11:00.085Z,71.62
2018-05-17T01:13:27.712Z,70.55
2018-05-17T01:15:55.344Z,71.01
2018-05-17T01:18:22.964Z,71.73
2018-05-17T01:20:50.596Z,71.82
2018-05-17T01:23:18.220Z,72.30
2018-05-17T01:25:45.903Z,72.69
2018-05-17T01:28:13.503Z,73.64
2018-05-17T01:30:41.145Z,73.52
2018-05-17T01:33:08.821Z,73.81
2018-05-17T01:35:36.473Z,73.65
2018-05-17T01:38:15.576Z,73.49
2018-05-17T01:40:43.207Z,73.52
2018-05-17T01:43:10.803Z,73.05
2018-05-17T01:45:38.566Z,72.62
2018-05-17T01:48:06.180Z,72.83
2018-05-17T01:50:33.797Z,71.81
2018-05-17T01:53:01.452Z,71.13
2018-05-17T01:55:29.129Z,71.94
2018-05-17T01:57:56.777Z,73.00
2018-05-17T02:00:24.373Z,73.42
2018-05-17T02:02:52.009Z,73.47
2018-05-17T02:05:19.763Z,73.45
2018-05-17T02:07:47.408Z,73.32
2018-05-17T02:10:15.098Z,73.48
2018-05-17T02:12:42.752Z,73.51
2018-05-17T02:15:10.352Z,73.59
2018-05-17T02:17:38.113Z,73.70
2018-05-17T02:20:05.717Z,74.04
2018-05-17T02:22:33.357Z,74.83
2018-05-17T02:25:00.967Z,74.59
2018-05-17T02:27:28.573Z,74.46
2018-05-17T02:29:56.228Z,74.49
2018-05-17T02:32:23.827Z,74.88
2018-05-17T02:34:51.498Z,74.74
2018-05-17T02:37:19.081Z,74.62
2018-05-17T02:39:46.725Z,74.77
2018-05-17T02:42:14.343Z,74.38
2018-05-17T02:44:42.033Z,74.92
2018-05-17T02:47:09.629Z,75.01
2018-05-17T02:49:37.277Z,74.53
2018-05-17T02:52:04.930Z,74.35
2018-05-17T02:54:32.592Z,74.52
2018-05-17T02:57:00.325Z,73.76
2018-05-17T02:59:27.893Z,74.60
2018-05-17T03:01:55.509Z,73.53
2018-05-17T03:04:23.145Z,74.00
2018-05-17T03:06:50.735Z,74.12
2018-05-17T03:09:18.433Z,73.98
2018-05-17T03:11:46.073Z,73.81
2018-05-17T03:14:13.719Z,73.68
2018-05-17T03:16:41.353Z,73.49
2018-05-17T03:19:08.988Z,73.95
2018-05-17T03:21:36.741Z,74.41
2018-05-17T03:24:04.342Z,74.68
2018-05-17T03:26:31.985Z,74.17
2018-05-17T03:28:59.666Z,73.50
2018-05-17T03:31:27.352Z,73.08
2018-05-17T03:33:54.974Z,73.44
2018-05-17T03:36:22.635Z,73.54
2018-05-17T03:38:50.298Z,72.94
2018-05-17T03:41:17.989Z,72.65
2018-05-17T03:43:45.597Z,72.61
2018-05-17T03:46:13.242Z,72.20
2018-05-17T03:48:40.833Z,72.95
2018-05-17T03:51:08.482Z,73.08
2018-05-17T03:53:36.204Z,73.56
2018-05-17T03:56:03.870Z,73.30
2018-05-17T03:58:31.484Z,72.92
2018-05-17T04:01:10.777Z,73.13
2018-05-17T04:03:50.032Z,72.60
2018-05-17T04:06:29.348Z,72.56
2018-05-17T04:08:56.988Z,72.70
2018-05-17T04:11:24.629Z,72.30
2018-05-17T04:13:52.320Z,72.30
2018-05-17T04:16:19.848Z,72.19
2018-05-17T04:18:47.499Z,73.19
2018-05-17T04:21:15.116Z,73.54
2018-05-17T04:23:42.756Z,73.59
2018-05-17T04:26:10.373Z,72.13
2018-05-17T04:28:38.085Z,72.61
2018-05-17T04:31:05.688Z,72.78
2018-05-17T04:33:33.504Z,72.38
2018-05-17T04:36:01.101Z,72.26
2018-05-17T04:38:28.789Z,71.71
2018-05-17T04:40:56.506Z,72.15
2018-05-17T04:43:24.158Z,71.42
2018-05-17T04:45:51.885Z,71.29
2018-05-17T04:48:19.517Z,71.13
2018-05-17T04:50:47.180Z,70.46
2018-05-17T04:53:14.826Z,70.26
2018-05-17T04:55:42.429Z,70.40
2018-05-17T04:58:10.068Z,70.29
2018-05-17T05:00:37.729Z,70.42
2018-05-17T05:03:05.331Z,70.31
2018-05-17T05:05:33.032Z,70.16
2018-05-17T05:08:00.664Z,70.20
2018-05-17T05:10:28.322Z,71.13
2018-05-17T05:12:55.928Z,70.06
2018-05-17T05:15:23.616Z,70.15
2018-05-17T05:17:51.220Z,70.73
2018-05-17T05:20:18.862Z,70.34
2018-05-17T05:22:46.516Z,69.39
2018-05-17T05:25:14.235Z,69.70
2018-05-17T05:27:41.824Z,69.78
2018-05-17T05:30:09.450Z,69.34
2018-05-17T05:32:37.091Z,68.93
2018-05-17T05:35:04.700Z,69.42
2018-05-17T05:37:32.411Z,69.35
2018-05-17T05:39:59.989Z,69.06
2018-05-17T05:42:27.655Z,68.83
2018-05-17T05:44:55.294Z,68.19
2018-05-17T05:47:22.944Z,67.62
2018-05-17T05:49:50.536Z,68.43
2018-05-17T05:52:18.172Z,68.26
2018-05-17T05:54:45.805Z,68.04
2018-05-17T05:57:13.449Z,67.56
2018-05-17T05:59:41.059Z,66.74
2018-05-17T06:02:08.653Z,67.55
2018-05-17T06:04:36.314Z,67.54
2018-05-17T06:07:03.936Z,67.70
2018-05-17T06:09:31.699Z,67.70
2018-05-17T06:11:59.308Z,67.20
2018-05-17T06:14:27.029Z,66.96
2018-05-17T06:16:54.637Z,66.55
2018-05-17T06:19:22.288Z,66.81
2018-05-17T06:21:50.017Z,66.89
2018-05-17T06:24:17.675Z,66.58
2018-05-17T06:26:45.288Z,66.00
2018-05-17T06:29:12.936Z,65.79
2018-05-17T06:31:40.552Z,66.28
2018-05-17T06:34:08.210Z,66.71
2018-05-17T06:36:35.820Z,65.49
2018-05-17T06:39:03.446Z,65.64
2018-05-17T06:41:31.054Z,65.33
2018-05-17T06:43:58.740Z,64.74
2018-05-17T06:46:26.305Z,65.17
2018-05-17T06:48:54.096Z,64.85
2018-05-17T06:51:21.701Z,64.49
2018-05-17T06:53:49.307Z,62.85
2018-05-17T06:56:16.966Z,63.33
2018-05-17T06:58:44.588Z,63.62
2018-05-17T07:01:12.396Z,63.91
2018-05-17T07:03:39.911Z,62.50
2018-05-17T07:06:07.556Z,63.19
2018-05-17T07:08:35.219Z,63.10
2018-05-17T07:11:02.908Z,63.59
2018-05-17T07:13:30.531Z,63.57
2018-05-17T07:15:58.169Z,63.65
2018-05-17T07:18:25.875Z,64.06
2018-05-17T07:20:53.449Z,64.50
2018-05-17T07:23:21.062Z,64.24
2018-05-17T07:25:48.697Z,63.89
2018-05-17T07:28:16.313Z,64.23
2018-05-17T07:30:43.977Z,63.56
2018-05-17T07:33:11.604Z,63.54
2018-05-17T07:35:39.312Z,62.44
2018-05-17T07:38:06.917Z,62.55
2018-05-17T07:40:34.527Z,62.92
2018-05-17T07:43:02.161Z,62.48
2018-05-17T07:45:29.909Z,62.99
2018-05-17T07:47:57.573Z,62.73
2018-05-17T07:50:25.279Z,62.74
2018-05-17T07:52:53.056Z,61.46
2018-05-17T07:55:20.738Z,61.93
2018-05-17T07:57:48.449Z,60.85
2018-05-17T08:00:16.066Z,60.82
2018-05-17T08:02:43.792Z,60.97
2018-05-17T08:05:11.393Z,60.19
2018-05-17T08:07:39.065Z,59.91
2018-05-17T08:10:06.689Z,59.21
2018-05-17T08:12:34.341Z,59.72
2018-05-17T08:15:01.968Z,59.29
2018-05-17T08:17:29.661Z,59.66
2018-05-17T08:19:57.260Z,59.88
2018-05-17T08:22:24.860Z,60.35
2018-05-17T08:24:52.575Z,60.32
2018-05-17T08:27:20.174Z,59.75
2018-05-17T08:29:47.833Z,59.38
2018-05-17T08:32:15.433Z,59.13
2018-05-17T08:34:43.075Z,59.34
2018-05-17T08:37:10.765Z,58.83
2018-05-17T08:39:38.348Z,58.38
2018-05-17T08:42:05.990Z,58.11
2018-05-17T08:44:33.909Z,57.32
2018-05-17T08:47:01.521Z,57.66
2018-05-17T08:49:29.124Z,59.22
2018-05-17T08:51:57.465Z,59.23
2018-05-17T08:54:25.100Z,59.08
2018-05-17T08:56:52.730Z,59.18
2018-05-17T08:59:20.340Z,59.10
2018-05-17T09:01:48.051Z,59.13
2018-05-17T09:04:15.653Z,59.14
2018-05-17T09:06:43.296Z,59.17
2018-05-17T09:09:10.897Z,59.05
2018-05-17T09:11:38.537Z,58.88
2018-05-17T09:14:06.298Z,59.10
2018-05-17T09:16:33.963Z,58.25
2018-05-17T09:19:01.567Z,58.98
2018-05-17T09:21:29.180Z,58.67
2018-05-17T09:23:56.822Z,58.32
2018-05-17T09:26:24.460Z,58.76
2018-05-17T09:28:52.093Z,58.50
2018-05-17T09:31:19.718Z,58.27
2018-05-17T09:33:47.352Z,57.38
2018-05-17T09:36:14.953Z,56.53
2018-05-17T09:38:42.593Z,57.13
2018-05-17T09:41:10.432Z,56.97
2018-05-17T09:43:38.122Z,56.71
2018-05-17T09:46:05.730Z,55.31
2018-05-17T09:48:33.459Z,54.18
2018-05-17T09:51:01.082Z,53.05
2018-05-17T09:53:28.736Z,53.73
2018-05-17T09:55:56.369Z,53.30
2018-05-17T09:58:24.133Z,53.57
2018-05-17T10:00:51.761Z,53.98
2018-05-17T10:03:19.430Z,52.97
2018-05-17T10:05:47.048Z,53.68
2018-05-17T10:08:14.732Z,54.97
2018-05-17T10:10:42.468Z,55.13
2018-05-17T10:13:10.070Z,55.49
2018-05-17T10:15:37.937Z,55.57
2018-05-17T10:18:05.522Z,54.08
2018-05-17T10:20:33.186Z,53.23
2018-05-17T10:23:00.849Z,53.77
2018-05-17T10:25:28.480Z,53.16
2018-05-17T10:27:56.160Z,53.37
2018-05-17T10:30:23.811Z,52.87
2018-05-17T10:32:51.446Z,53.78
2018-05-17T10:35:19.118Z,53.82
2018-05-17T10:37:46.725Z,53.13
2018-05-17T10:40:15.319Z,52.94
2018-05-17T10:42:42.933Z,51.83
2018-05-17T10:45:10.569Z,51.27
2018-05-17T10:47:38.192Z,51.19
2018-05-17T10:50:05.953Z,51.80
2018-05-17T10:52:33.648Z,50.99
2018-05-17T10:55:01.297Z,49.87
2018-05-17T10:57:28.889Z,50.71
2018-05-17T10:59:56.617Z,50.44
2018-05-17T11:02:24.247Z,49.29
2018-05-17T11:04:51.836Z,49.36
2018-05-17T11:07:19.560Z,48.75
2018-05-17T11:09:47.171Z,48.57
2018-05-17T11:12:14.839Z,47.91
2018-05-17T11:14:42.430Z,47.83
2018-05-17T11:17:10.061Z,46.34
2018-05-17T11:19:37.665Z,46.11
2018-05-17T11:22:05.365Z,45.89
2018-05-17T11:24:32.965Z,47.45
2018-05-17T11:27:00.609Z,48.04
2018-05-17T11:29:28.240Z,48.84
2018-05-17T11:31:55.928Z,48.89
2018-05-17T11:34:23.556Z,47.98
2018-05-17T11:36:51.225Z,47.87
2018-05-17T11:39:18.821Z,46.46
2018-05-17T11:41:46.436Z,46.98
2018-05-17T11:44:14.329Z,46.34
2018-05-17T11:46:41.840Z,46.49
2018-05-17T11:49:09.487Z,46.55
2018-05-17T11:51:37.080Z,44.44
2018-05-17T11:54:04.762Z,43.86
2018-05-17T11:56:32.510Z,43.60
2018-05-17T11:59:00.136Z,44.87
2018-05-17T12:01:27.802Z,43.88
2018-05-17T12:03:55.401Z,44.51
2018-05-17T12:06:23.025Z,44.13
2018-05-17T12:08:50.664Z,43.76
2018-05-17T12:11:18.273Z,44.75
2018-05-17T12:13:46.000Z,44.54
2018-05-17T12:16:13.623Z,43.61
2018-05-17T12:18:41.374Z,43.84
2018-05-17T12:21:08.994Z,43.92
2018-05-17T12:23:36.584Z,42.65
2018-05-17T12:26:04.246Z,42.11
2018-05-17T12:28:31.870Z,42.32
2018-05-17T12:30:59.525Z,41.92
2018-05-17T12:33:27.140Z,41.78
2018-05-17T12:35:54.869Z,41.18
2018-05-17T12:38:22.468Z,41.83
2018-05-17T12:40:50.276Z,41.53
2018-05-17T12:43:17.878Z,41.14
2018-05-17T12:45:45.520Z,42.00
2018-05-17T12:48:13.185Z,40.16
2018-05-17T12:50:40.837Z,40.97
2018-05-17T12:53:08.541Z,41.24
2018-05-17T12:55:36.197Z,40.76
2018-05-17T12:58:03.813Z,40.85
2018-05-17T13:00:31.405Z,41.25
2018-05-17T13:02:59.052Z,40.40
2018-05-17T13:05:26.652Z,40.38
2018-05-17T13:07:54.313Z,40.73
2018-05-17T13:10:21.956Z,39.27
2018-05-17T13:12:49.591Z,40.94
2018-05-17T13:15:17.192Z,39.54
2018-05-17T13:17:44.853Z,39.16
2018-05-17T13:20:12.538Z,39.05
2018-05-17T13:22:40.196Z,36.58
2018-05-17T13:25:07.923Z,37.20
2018-05-17T13:27:35.612Z,36.42
2018-05-17T13:30:03.212Z,36.57
2018-05-17T13:32:30.853Z,36.96
2018-05-17T13:34:59.412Z,36.55
2018-05-17T13:37:27.142Z,37.69
2018-05-17T13:39:54.678Z,36.84
2018-05-17T13:42:22.352Z,36.94
2018-05-17T13:44:50.246Z,36.11
2018-05-17T13:47:17.864Z,35.33
2018-05-17T13:49:45.524Z,35.56
2018-05-17T13:52:13.148Z,36.84
2018-05-17T13:54:40.797Z,36.43
2018-05-17T13:57:08.437Z,36.41
2018-05-17T13:59:36.068Z,35.73
2018-05-17T14:02:03.672Z,35.80
2018-05-17T14:04:31.392Z,35.56
2018-05-17T14:06:59.005Z,35.87
2018-05-17T14:09:27.418Z,35.42
2018-05-17T14:11:55.756Z,35.66
2018-05-17T14:14:23.429Z,36.31
2018-05-17T14:16:51.089Z,36.15
2018-05-17T14:19:18.769Z,34.91
2018-05-17T14:21:46.379Z,35.58
2018-05-17T14:24:14.158Z,35.25
2018-05-17T14:26:41.833Z,34.61
2018-05-17T14:29:09.435Z,35.75
2018-05-17T14:31:37.084Z,35.76
2018-05-17T14:34:04.702Z,34.93
2018-05-17T14:36:32.369Z,32.89
2018-05-17T14:38:59.982Z,33.12
2018-05-17T14:41:27.714Z,31.72
2018-05-17T14:43:55.325Z,31.06
2018-05-17T14:46:22.977Z,31.71
2018-05-17T14:48:50.746Z,31.73
2018-05-17T14:51:18.433Z,32.58
2018-05-17T14:53:46.035Z,33.24
2018-05-17T14:56:13.704Z,32.09
2018-05-17T14:58:41.307Z,32.87
2018-05-17T15:01:09.017Z,32.51
2018-05-17T15:03:36.594Z,32.99
2018-05-17T15:06:04.227Z,32.82
2018-05-17T15:08:31.893Z,32.55
2018-05-17T15:10:59.497Z,33.09
2018-05-17T15:13:27.247Z,33.32
2018-05-17T15:15:54.857Z,33.75
2018-05-17T15:18:22.513Z,33.81
2018-05-17T15:20:50.196Z,32.13
2018-05-17T15:23:17.881Z,31.82
2018-05-17T15:25:45.477Z,33.04
2018-05-17T15:28:13.117Z,33.79
2018-05-17T15:30:40.938Z,32.43
2018-05-17T15:33:08.573Z,33.64
2018-05-17T15:35:36.193Z,33.25
2018-05-17T15:38:03.808Z,33.14
2018-05-17T15:40:31.454Z,33.97
2018-05-17T15:42:59.336Z,32.59
2018-05-17T15:45:26.983Z,33.41
2018-05-17T15:47:54.598Z,33.71
2018-05-17T15:50:22.364Z,34.06
2018-05-17T15:52:49.975Z,33.78
2018-05-17T15:55:17.664Z,34.60
2018-05-17T15:57:45.256Z,33.84
2018-05-17T16:00:12.896Z,33.82
2018-05-17T16:02:40.630Z,33.53
2018-05-17T16:05:08.539Z,34.88
2018-05-17T16:07:36.224Z,35.48
2018-05-17T16:10:04.072Z,35.13
2018-05-17T16:12:31.769Z,34.84
2018-05-17T16:14:59.420Z,34.00
2018-05-17T16:17:27.044Z,35.09
2018-05-17T16:19:54.672Z,35.47
2018-05-17T16:22:22.299Z,34.78
2018-05-17T16:24:49.902Z,35.24
2018-05-17T16:27:17.552Z,35.87
2018-05-17T16:29:45.154Z,35.12
2018-05-17T16:32:12.856Z,35.30
2018-05-17T16:34:40.492Z,36.68
2018-05-17T16:37:08.228Z,37.34
2018-05-17T16:39:35.839Z,37.55
2018-05-17T16:42:03.566Z,37.37
2018-05-17T16:44:31.163Z,37.32
2018-05-17T16:46:58.984Z,37.85
2018-05-17T16:49:26.605Z,38.29
2018-05-17T16:51:54.197Z,37.55
2018-05-17T16:54:21.943Z,37.48
2018-05-17T16:56:49.527Z,37.66
2018-05-17T16:59:17.183Z,37.81
2018-05-17T17:01:44.876Z,37.95
2018-05-17T17:04:12.529Z,38.56
2018-05-17T17:06:40.137Z,39.11
2018-05-17T17:09:07.780Z,39.73
2018-05-17T17:11:35.372Z,39.68
2018-05-17T17:14:03.033Z,39.64
2018-05-17T17:16:30.683Z,40.07
2018-05-17T17:18:58.322Z,40.12
2018-05-17T17:21:25.961Z,39.52
2018-05-17T17:23:53.677Z,39.36
2018-05-17T17:26:21.219Z,39.22
2018-05-17T17:28:48.877Z,39.89
2018-05-17T17:31:16.487Z,40.99
2018-05-17T17:33:44.205Z,40.66
2018-05-17T17:36:11.807Z,41.55
2018-05-17T17:38:39.430Z,41.01
2018-05-17T17:41:07.088Z,40.97
2018-05-17T17:43:34.733Z,40.98
2018-05-17T17:46:03.243Z,41.62
2018-05-17T17:48:30.945Z,41.64
2018-05-17T17:50:58.611Z,41.94
2018-05-17T17:53:26.322Z,41.61
2018-05-17T17:55:53.925Z,42.04
2018-05-17T17:58:21.611Z,42.20
2018-05-17T18:00:49.299Z,42.14
2018-05-17T18:03:16.910Z,42.37
2018-05-17T18:05:45.054Z,42.85
2018-05-17T18:08:12.665Z,42.94
2018-05-17T18:10:40.321Z,42.90
2018-05-17T18:13:07.936Z,43.23
2018-05-17T18:15:35.600Z,44.01
2018-05-17T18:18:03.821Z,43.54
2018-05-17T18:20:31.584Z,44.52
2018-05-17T18:22:59.213Z,45.34
2018-05-17T18:25:26.816Z,44.99
2018-05-17T18:27:54.469Z,45.57
2018-05-17T18:30:22.239Z,45.94
2018-05-17T18:32:49.906Z,45.90
2018-05-17T18:35:17.510Z,46.60
2018-05-17T18:37:45.174Z,46.77
2018-05-17T18:40:12.785Z,47.51
2018-05-17T18:42:40.560Z,47.42
2018-05-17T18:45:08.166Z,47.97
2018-05-17T18:47:35.820Z,48.19
2018-05-17T18:50:03.454Z,48.81
2018-05-17T18:52:31.713Z,49.08
2018-05-17T18:54:59.325Z,49.44
2018-05-17T18:57:26.990Z,49.73
2018-05-17T18:59:54.598Z,50.03
2018-05-17T19:02:22.395Z,50.11
2018-05-17T19:04:49.992Z,50.28
2018-05-17T19:07:17.617Z,49.81
2018-05-17T19:09:45.257Z,50.07
2018-05-17T19:12:12.905Z,50.71
2018-05-17T19:14:40.540Z,50.75
2018-05-17T19:17:08.187Z,50.73
2018-05-17T19:19:35.916Z,50.83
2018-05-17T19:22:03.537Z,50.94
2018-05-17T19:24:31.175Z,50.92
2018-05-17T19:26:58.788Z,50.76
2018-05-17T19:29:26.524Z,50.81
2018-05-17T19:31:54.138Z,51.06
2018-05-17T19:34:21.981Z,50.94
2018-05-17T19:36:49.670Z,51.57
2018-05-17T19:39:17.607Z,51.85
2018-05-17T19:41:45.273Z,51.79
2018-05-17T19:44:12.952Z,52.59
2018-05-17T19:46:40.598Z,52.93
2018-05-17T19:49:08.217Z,52.65
2018-05-17T19:51:35.907Z,52.88
2018-05-17T19:54:03.534Z,52.99
2018-05-17T19:56:31.209Z,53.20
2018-05-17T19:58:58.829Z,53.86
2018-05-17T20:01:26.500Z,54.00
2018-05-17T20:03:54.131Z,54.00
2018-05-17T20:06:21.834Z,54.14
2018-05-17T20:08:49.444Z,54.32
2018-05-17T20:11:17.187Z,54.63
2018-05-17T20:13:44.733Z,54.97
2018-05-17T20:16:12.477Z,54.70
2018-05-17T20:18:40.181Z,54.53
2018-05-17T20:21:07.791Z,54.99
2018-05-17T20:23:35.417Z,55.04
2018-05-17T20:26:03.079Z,55.16
2018-05-17T20:28:30.720Z,55.80
2018-05-17T20:30:58.398Z,55.96
2018-05-17T20:33:26.016Z,56.14
2018-05-17T20:35:53.660Z,56.36
2018-05-17T20:38:21.296Z,56.38
2018-05-17T20:40:48.920Z,56.51
2018-05-17T20:43:16.559Z,56.59
2018-05-17T20:45:44.246Z,56.69
2018-05-17T20:48:11.894Z,57.18
2018-05-17T20:50:39.556Z,57.53
2018-05-17T20:53:07.202Z,57.85
2018-05-17T20:55:34.835Z,57.92
2018-05-17T20:58:02.486Z,58.10
2018-05-17T21:00:30.174Z,58.38
2018-05-17T21:02:57.826Z,58.61
2018-05-17T21:05:25.445Z,58.61
2018-05-17T21:07:53.134Z,58.96
2018-05-17T21:10:20.865Z,58.84
2018-05-17T21:12:48.543Z,58.69
2018-05-17T21:15:16.075Z,59.09
2018-05-17T21:17:43.729Z,59.13
2018-05-17T21:20:11.372Z,59.72
2018-05-17T21:22:39.008Z,59.76
2018-05-17T21:25:06.702Z,60.49
2018-05-17T21:27:34.313Z,60.51
2018-05-17T21:30:02.210Z,60.29
2018-05-17T21:32:29.806Z,60.86
2018-05-17T21:34:57.450Z,61.15
2018-05-17T21:37:25.091Z,61.20
2018-05-17T21:39:52.749Z,61.37
2018-05-17T21:42:20.360Z,61.72
2018-05-17T21:44:48.043Z,62.23
2018-05-17T21:47:15.613Z,62.05
2018-05-17T21:49:43.261Z,62.18
2018-05-17T21:52:10.896Z,62.05
2018-05-17T21:54:39.540Z,62.13
2018-05-17T21:57:07.168Z,62.21
2018-05-17T21:59:34.828Z,62.56
2018-05-17T22:02:02.450Z,62.71
2018-05-17T22:04:30.168Z,63.00
2018-05-17T22:06:57.794Z,62.84
2018-05-17T22:09:25.402Z,63.00
2018-05-17T22:11:53.097Z,63.21
2018-05-17T22:14:20.684Z,63.77
2018-05-17T22:16:48.333Z,63.81
2018-05-17T22:19:15.928Z,63.94
2018-05-17T22:21:43.569Z,63.95
2018-05-17T22:24:11.189Z,64.54
2018-05-17T22:26:38.844Z,63.93
2018-05-17T22:29:06.497Z,64.90
2018-05-17T22:31:34.180Z,64.99
2018-05-17T22:34:01.809Z,64.74
2018-05-17T22:36:29.479Z,64.84
2018-05-17T22:38:57.079Z,65.12
2018-05-17T22:41:24.819Z,65.10
2018-05-17T22:43:52.417Z,65.25
2018-05-17T22:46:20.084Z,65.40
2018-05-17T22:48:49.332Z,65.44
2018-05-17T22:51:16.982Z,65.17
2018-05-17T22:53:44.597Z,65.50
2018-05-17T23:09:38.588Z,65.82
2018-05-17T23:12:06.914Z,66.34
2018-05-17T23:14:34.525Z,66.91
2018-05-17T23:17:02.219Z,66.17
2018-05-17T23:19:29.838Z,66.29
2018-05-17T23:21:57.521Z,66.49
2018-05-17T23:24:25.228Z,66.87
2018-05-17T23:26:53.701Z,67.61
2018-05-17T23:29:21.440Z,67.28
2018-05-17T23:31:49.054Z,67.58
2018-05-17T23:34:16.689Z,67.78
2018-05-17T23:36:44.882Z,68.51
2018-05-17T23:39:12.526Z,68.32
2018-05-17T23:41:45.995Z,68.49
2018-05-17T23:44:13.637Z,67.65
2018-05-17T23:46:41.249Z,68.26
2018-05-17T23:49:08.929Z,68.25
2018-05-17T23:51:36.529Z,68.40
2018-05-17T23:54:04.203Z,68.23
2018-05-17T23:56:31.849Z,68.22
2018-05-17T23:58:59.511Z,68.12
